sensor_id;sensor_type;location;lat;lon;timestamp;P1;durP1;ratioP1;P2;durP2;ratioP2
46507;SDS011;32223;53.654;10.014;2023-06-14T00:01:53;9.18;;;3.50;;
46507;SDS011;32223;53.654;10.014;2023-06-14T00:04:18;5.13;;;2.22;;
46507;SDS011;32223;53.654;10.014;2023-06-14T00:06:45;5.57;;;2.38;;
46507;SDS011;32223;53.654;10.014;2023-06-14T00:09:11;8.52;;;2.42;;
46507;SDS011;32223;53.654;10.014;2023-06-14T00:11:42;4.03;;;2.58;;
46507;SDS011;32223;53.654;10.014;2023-06-14T00:14:08;7.00;;;2.65;;
46507;SDS011;32223;53.654;10.014;2023-06-14T00:16:34;8.82;;;2.42;;
46507;SDS011;32223;53.654;10.014;2023-06-14T00:19:03;3.97;;;2.40;;
46507;SDS011;32223;53.654;10.014;2023-06-14T00:21:29;8.23;;;2.75;;
46507;SDS011;32223;53.654;10.014;2023-06-14T00:23:56;3.58;;;2.33;;
46507;SDS011;32223;53.654;10.014;2023-06-14T00:26:22;4.25;;;2.50;;
46507;SDS011;32223;53.654;10.014;2023-06-14T00:28:48;5.82;;;2.80;;
46507;SDS011;32223;53.654;10.014;2023-06-14T00:31:14;6.50;;;2.25;;
46507;SDS011;32223;53.654;10.014;2023-06-14T00:33:40;4.78;;;2.03;;
46507;SDS011;32223;53.654;10.014;2023-06-14T00:36:05;5.63;;;2.92;;
46507;SDS011;32223;53.654;10.014;2023-06-14T00:38:31;8.98;;;3.25;;
46507;SDS011;32223;53.654;10.014;2023-06-14T00:40:57;4.45;;;2.28;;
46507;SDS011;32223;53.654;10.014;2023-06-14T00:43:22;3.38;;;1.80;;
46507;SDS011;32223;53.654;10.014;2023-06-14T00:45:48;3.28;;;2.17;;
46507;SDS011;32223;53.654;10.014;2023-06-14T00:48:14;4.47;;;2.50;;
46507;SDS011;32223;53.654;10.014;2023-06-14T00:50:40;5.45;;;2.55;;
46507;SDS011;32223;53.654;10.014;2023-06-14T00:53:06;5.00;;;2.40;;
46507;SDS011;32223;53.654;10.014;2023-06-14T00:55:32;5.80;;;2.35;;
46507;SDS011;32223;53.654;10.014;2023-06-14T00:57:58;4.70;;;2.30;;
46507;SDS011;32223;53.654;10.014;2023-06-14T01:00:24;4.82;;;2.45;;
46507;SDS011;32223;53.654;10.014;2023-06-14T01:02:49;7.25;;;3.20;;
46507;SDS011;32223;53.654;10.014;2023-06-14T01:05:15;7.10;;;2.40;;
46507;SDS011;32223;53.654;10.014;2023-06-14T01:15:26;4.28;;;2.45;;
46507;SDS011;32223;53.654;10.014;2023-06-14T01:17:54;6.40;;;2.40;;
46507;SDS011;32223;53.654;10.014;2023-06-14T01:20:29;7.43;;;2.63;;
46507;SDS011;32223;53.654;10.014;2023-06-14T01:22:57;6.18;;;2.55;;
46507;SDS011;32223;53.654;10.014;2023-06-14T01:25:23;6.63;;;2.33;;
46507;SDS011;32223;53.654;10.014;2023-06-14T01:27:51;9.32;;;2.72;;
46507;SDS011;32223;53.654;10.014;2023-06-14T01:30:22;5.93;;;2.67;;
46507;SDS011;32223;53.654;10.014;2023-06-14T01:32:50;7.68;;;3.20;;
46507;SDS011;32223;53.654;10.014;2023-06-14T01:35:17;7.95;;;2.40;;
46507;SDS011;32223;53.654;10.014;2023-06-14T01:37:43;5.40;;;2.88;;
46507;SDS011;32223;53.654;10.014;2023-06-14T01:40:11;6.38;;;2.58;;
46507;SDS011;32223;53.654;10.014;2023-06-14T01:42:39;6.00;;;2.83;;
46507;SDS011;32223;53.654;10.014;2023-06-14T01:45:06;6.55;;;3.58;;
46507;SDS011;32223;53.654;10.014;2023-06-14T01:47:32;6.07;;;2.58;;
46507;SDS011;32223;53.654;10.014;2023-06-14T01:50:01;6.85;;;2.72;;
46507;SDS011;32223;53.654;10.014;2023-06-14T01:52:28;11.32;;;2.67;;
46507;SDS011;32223;53.654;10.014;2023-06-14T01:54:53;6.40;;;2.65;;
46507;SDS011;32223;53.654;10.014;2023-06-14T01:57:19;6.60;;;3.00;;
46507;SDS011;32223;53.654;10.014;2023-06-14T01:59:45;9.27;;;2.95;;
46507;SDS011;32223;53.654;10.014;2023-06-14T02:02:13;5.07;;;2.47;;
46507;SDS011;32223;53.654;10.014;2023-06-14T02:04:39;5.80;;;2.63;;
46507;SDS011;32223;53.654;10.014;2023-06-14T02:07:05;6.30;;;2.53;;
46507;SDS011;32223;53.654;10.014;2023-06-14T02:09:30;4.65;;;3.05;;
46507;SDS011;32223;53.654;10.014;2023-06-14T02:11:56;6.95;;;2.70;;
46507;SDS011;32223;53.654;10.014;2023-06-14T02:14:22;4.47;;;1.92;;
46507;SDS011;32223;53.654;10.014;2023-06-14T02:16:48;5.28;;;2.35;;
46507;SDS011;32223;53.654;10.014;2023-06-14T02:19:17;8.88;;;3.03;;
46507;SDS011;32223;53.654;10.014;2023-06-14T02:21:44;9.80;;;2.70;;
46507;SDS011;32223;53.654;10.014;2023-06-14T02:24:10;5.10;;;2.67;;
46507;SDS011;32223;53.654;10.014;2023-06-14T02:26:36;4.80;;;2.28;;
46507;SDS011;32223;53.654;10.014;2023-06-14T02:29:06;8.40;;;2.88;;
46507;SDS011;32223;53.654;10.014;2023-06-14T02:31:35;5.32;;;2.65;;
46507;SDS011;32223;53.654;10.014;2023-06-14T02:34:01;6.63;;;2.63;;
46507;SDS011;32223;53.654;10.014;2023-06-14T02:36:27;5.03;;;2.67;;
46507;SDS011;32223;53.654;10.014;2023-06-14T02:38:54;8.77;;;3.42;;
46507;SDS011;32223;53.654;10.014;2023-06-14T02:41:22;6.53;;;3.17;;
46507;SDS011;32223;53.654;10.014;2023-06-14T02:43:48;7.22;;;3.30;;
46507;SDS011;32223;53.654;10.014;2023-06-14T02:46:14;5.63;;;3.08;;
46507;SDS011;32223;53.654;10.014;2023-06-14T02:48:40;3.88;;;2.55;;
46507;SDS011;32223;53.654;10.014;2023-06-14T02:51:05;7.75;;;3.35;;
46507;SDS011;32223;53.654;10.014;2023-06-14T02:53:31;5.28;;;3.20;;
46507;SDS011;32223;53.654;10.014;2023-06-14T02:55:57;5.07;;;2.90;;
46507;SDS011;32223;53.654;10.014;2023-06-14T02:58:23;8.43;;;4.30;;
46507;SDS011;32223;53.654;10.014;2023-06-14T03:00:50;5.82;;;3.30;;
46507;SDS011;32223;53.654;10.014;2023-06-14T03:03:17;8.68;;;2.72;;
46507;SDS011;32223;53.654;10.014;2023-06-14T03:05:44;4.63;;;3.17;;
46507;SDS011;32223;53.654;10.014;2023-06-14T03:08:12;5.75;;;3.20;;
46507;SDS011;32223;53.654;10.014;2023-06-14T03:10:47;8.15;;;3.40;;
46507;SDS011;32223;53.654;10.014;2023-06-14T03:13:16;4.47;;;2.80;;
46507;SDS011;32223;53.654;10.014;2023-06-14T03:15:46;7.60;;;3.67;;
46507;SDS011;32223;53.654;10.014;2023-06-14T03:18:15;6.78;;;2.80;;
46507;SDS011;32223;53.654;10.014;2023-06-14T03:20:44;8.32;;;3.28;;
46507;SDS011;32223;53.654;10.014;2023-06-14T03:23:10;5.45;;;3.20;;
46507;SDS011;32223;53.654;10.014;2023-06-14T03:25:36;3.97;;;2.88;;
46507;SDS011;32223;53.654;10.014;2023-06-14T03:28:03;6.38;;;2.92;;
46507;SDS011;32223;53.654;10.014;2023-06-14T03:30:30;8.80;;;2.95;;
46507;SDS011;32223;53.654;10.014;2023-06-14T03:32:56;7.18;;;3.25;;
46507;SDS011;32223;53.654;10.014;2023-06-14T03:35:22;8.73;;;3.95;;
46507;SDS011;32223;53.654;10.014;2023-06-14T03:37:48;5.22;;;2.90;;
46507;SDS011;32223;53.654;10.014;2023-06-14T03:40:15;7.60;;;3.08;;
46507;SDS011;32223;53.654;10.014;2023-06-14T03:42:43;5.75;;;3.00;;
46507;SDS011;32223;53.654;10.014;2023-06-14T03:45:09;5.03;;;2.65;;
46507;SDS011;32223;53.654;10.014;2023-06-14T03:47:35;6.85;;;3.03;;
46507;SDS011;32223;53.654;10.014;2023-06-14T03:50:03;8.73;;;3.22;;
46507;SDS011;32223;53.654;10.014;2023-06-14T03:52:30;9.02;;;3.17;;
46507;SDS011;32223;53.654;10.014;2023-06-14T03:54:57;4.45;;;3.05;;
46507;SDS011;32223;53.654;10.014;2023-06-14T03:57:25;5.45;;;2.75;;
46507;SDS011;32223;53.654;10.014;2023-06-14T03:59:51;6.90;;;3.30;;
46507;SDS011;32223;53.654;10.014;2023-06-14T04:02:16;4.43;;;2.60;;
46507;SDS011;32223;53.654;10.014;2023-06-14T04:04:43;6.80;;;2.92;;
46507;SDS011;32223;53.654;10.014;2023-06-14T04:07:13;5.55;;;2.78;;
46507;SDS011;32223;53.654;10.014;2023-06-14T04:09:40;6.28;;;3.10;;
46507;SDS011;32223;53.654;10.014;2023-06-14T04:12:06;9.52;;;3.78;;
46507;SDS011;32223;53.654;10.014;2023-06-14T04:14:33;5.72;;;3.15;;
46507;SDS011;32223;53.654;10.014;2023-06-14T04:17:02;4.85;;;2.97;;
46507;SDS011;32223;53.654;10.014;2023-06-14T04:19:28;5.43;;;3.10;;
46507;SDS011;32223;53.654;10.014;2023-06-14T04:21:54;5.00;;;2.95;;
46507;SDS011;32223;53.654;10.014;2023-06-14T04:24:20;6.97;;;2.50;;
46507;SDS011;32223;53.654;10.014;2023-06-14T04:26:45;5.20;;;2.67;;
46507;SDS011;32223;53.654;10.014;2023-06-14T04:29:13;4.60;;;3.25;;
46507;SDS011;32223;53.654;10.014;2023-06-14T04:31:41;4.57;;;2.60;;
46507;SDS011;32223;53.654;10.014;2023-06-14T04:34:11;6.55;;;2.85;;
46507;SDS011;32223;53.654;10.014;2023-06-14T04:36:43;7.63;;;2.30;;
46507;SDS011;32223;53.654;10.014;2023-06-14T04:39:20;3.60;;;2.75;;
46507;SDS011;32223;53.654;10.014;2023-06-14T04:41:46;6.85;;;2.83;;
46507;SDS011;32223;53.654;10.014;2023-06-14T04:44:12;5.43;;;2.53;;
46507;SDS011;32223;53.654;10.014;2023-06-14T04:46:38;8.07;;;3.30;;
46507;SDS011;32223;53.654;10.014;2023-06-14T04:49:19;5.15;;;2.70;;
46507;SDS011;32223;53.654;10.014;2023-06-14T04:51:45;10.40;;;4.05;;
46507;SDS011;32223;53.654;10.014;2023-06-14T04:54:12;5.78;;;3.03;;
46507;SDS011;32223;53.654;10.014;2023-06-14T04:56:40;7.07;;;2.92;;
46507;SDS011;32223;53.654;10.014;2023-06-14T04:59:11;6.38;;;2.65;;
46507;SDS011;32223;53.654;10.014;2023-06-14T05:01:37;6.50;;;3.05;;
46507;SDS011;32223;53.654;10.014;2023-06-14T05:04:09;7.22;;;3.08;;
46507;SDS011;32223;53.654;10.014;2023-06-14T05:06:35;7.32;;;3.25;;
46507;SDS011;32223;53.654;10.014;2023-06-14T05:09:01;9.45;;;2.72;;
46507;SDS011;32223;53.654;10.014;2023-06-14T05:11:27;6.18;;;3.22;;
46507;SDS011;32223;53.654;10.014;2023-06-14T05:13:52;8.13;;;2.90;;
46507;SDS011;32223;53.654;10.014;2023-06-14T05:16:18;7.63;;;3.05;;
46507;SDS011;32223;53.654;10.014;2023-06-14T05:18:45;4.88;;;2.80;;
46507;SDS011;32223;53.654;10.014;2023-06-14T05:21:12;3.97;;;3.00;;
46507;SDS011;32223;53.654;10.014;2023-06-14T05:23:41;7.95;;;3.15;;
46507;SDS011;32223;53.654;10.014;2023-06-14T05:26:06;5.93;;;2.75;;
46507;SDS011;32223;53.654;10.014;2023-06-14T05:28:32;8.27;;;3.35;;
46507;SDS011;32223;53.654;10.014;2023-06-14T05:30:57;4.53;;;2.67;;
46507;SDS011;32223;53.654;10.014;2023-06-14T05:33:23;7.47;;;2.80;;
46507;SDS011;32223;53.654;10.014;2023-06-14T05:35:48;9.98;;;3.58;;
46507;SDS011;32223;53.654;10.014;2023-06-14T05:38:15;4.93;;;2.72;;
46507;SDS011;32223;53.654;10.014;2023-06-14T05:40:40;4.50;;;2.65;;
46507;SDS011;32223;53.654;10.014;2023-06-14T05:43:06;9.32;;;4.05;;
46507;SDS011;32223;53.654;10.014;2023-06-14T05:45:31;6.28;;;2.55;;
46507;SDS011;32223;53.654;10.014;2023-06-14T05:47:57;7.60;;;3.55;;
46507;SDS011;32223;53.654;10.014;2023-06-14T05:50:22;4.70;;;2.90;;
46507;SDS011;32223;53.654;10.014;2023-06-14T05:52:48;3.63;;;2.67;;
46507;SDS011;32223;53.654;10.014;2023-06-14T05:55:15;5.55;;;3.50;;
46507;SDS011;32223;53.654;10.014;2023-06-14T05:57:41;6.65;;;2.78;;
46507;SDS011;32223;53.654;10.014;2023-06-14T06:00:08;5.20;;;3.08;;
46507;SDS011;32223;53.654;10.014;2023-06-14T06:02:40;9.80;;;3.42;;
46507;SDS011;32223;53.654;10.014;2023-06-14T06:05:08;6.90;;;2.95;;
46507;SDS011;32223;53.654;10.014;2023-06-14T06:07:34;5.15;;;2.22;;
46507;SDS011;32223;53.654;10.014;2023-06-14T06:10:01;7.43;;;2.88;;
46507;SDS011;32223;53.654;10.014;2023-06-14T06:12:26;8.40;;;3.05;;
46507;SDS011;32223;53.654;10.014;2023-06-14T06:14:52;5.78;;;3.22;;
46507;SDS011;32223;53.654;10.014;2023-06-14T06:17:18;10.27;;;2.80;;
46507;SDS011;32223;53.654;10.014;2023-06-14T06:19:43;3.67;;;2.30;;
46507;SDS011;32223;53.654;10.014;2023-06-14T06:22:09;9.13;;;2.30;;
46507;SDS011;32223;53.654;10.014;2023-06-14T06:24:34;4.82;;;2.53;;
46507;SDS011;32223;53.654;10.014;2023-06-14T06:27:00;3.15;;;2.15;;
46507;SDS011;32223;53.654;10.014;2023-06-14T06:29:27;5.45;;;2.45;;
46507;SDS011;32223;53.654;10.014;2023-06-14T06:31:52;6.63;;;2.00;;
46507;SDS011;32223;53.654;10.014;2023-06-14T06:34:18;4.15;;;2.47;;
46507;SDS011;32223;53.654;10.014;2023-06-14T06:36:44;4.10;;;2.10;;
46507;SDS011;32223;53.654;10.014;2023-06-14T06:39:09;6.38;;;2.58;;
46507;SDS011;32223;53.654;10.014;2023-06-14T06:41:36;4.40;;;1.98;;
46507;SDS011;32223;53.654;10.014;2023-06-14T06:44:07;6.35;;;2.17;;
46507;SDS011;32223;53.654;10.014;2023-06-14T06:46:35;5.18;;;2.22;;
46507;SDS011;32223;53.654;10.014;2023-06-14T06:49:05;6.30;;;2.28;;
46507;SDS011;32223;53.654;10.014;2023-06-14T06:51:31;4.63;;;2.20;;
46507;SDS011;32223;53.654;10.014;2023-06-14T06:53:56;3.85;;;2.20;;
46507;SDS011;32223;53.654;10.014;2023-06-14T06:56:22;4.10;;;2.00;;
46507;SDS011;32223;53.654;10.014;2023-06-14T06:58:51;6.18;;;2.22;;
46507;SDS011;32223;53.654;10.014;2023-06-14T07:01:17;6.50;;;2.25;;
46507;SDS011;32223;53.654;10.014;2023-06-14T07:03:43;3.10;;;1.90;;
46507;SDS011;32223;53.654;10.014;2023-06-14T07:06:09;5.72;;;2.30;;
46507;SDS011;32223;53.654;10.014;2023-06-14T07:08:35;5.47;;;2.00;;
46507;SDS011;32223;53.654;10.014;2023-06-14T07:11:01;2.90;;;1.95;;
46507;SDS011;32223;53.654;10.014;2023-06-14T07:13:27;4.85;;;2.03;;
46507;SDS011;32223;53.654;10.014;2023-06-14T07:15:58;4.43;;;2.22;;
46507;SDS011;32223;53.654;10.014;2023-06-14T07:18:25;4.13;;;2.17;;
46507;SDS011;32223;53.654;10.014;2023-06-14T07:20:50;4.10;;;2.15;;
46507;SDS011;32223;53.654;10.014;2023-06-14T07:23:17;3.95;;;2.08;;
46507;SDS011;32223;53.654;10.014;2023-06-14T07:25:42;12.55;;;1.80;;
46507;SDS011;32223;53.654;10.014;2023-06-14T07:28:08;3.17;;;1.80;;
46507;SDS011;32223;53.654;10.014;2023-06-14T07:30:33;5.07;;;2.00;;
46507;SDS011;32223;53.654;10.014;2023-06-14T07:33:00;3.63;;;2.33;;
46507;SDS011;32223;53.654;10.014;2023-06-14T07:35:26;8.60;;;2.00;;
46507;SDS011;32223;53.654;10.014;2023-06-14T07:37:51;12.38;;;2.42;;
46507;SDS011;32223;53.654;10.014;2023-06-14T07:40:17;6.38;;;2.67;;
46507;SDS011;32223;53.654;10.014;2023-06-14T07:42:43;5.85;;;2.13;;
46507;SDS011;32223;53.654;10.014;2023-06-14T07:45:09;4.00;;;1.63;;
46507;SDS011;32223;53.654;10.014;2023-06-14T07:47:35;5.50;;;1.90;;
46507;SDS011;32223;53.654;10.014;2023-06-14T07:50:00;4.18;;;1.92;;
46507;SDS011;32223;53.654;10.014;2023-06-14T07:52:26;6.68;;;2.25;;
46507;SDS011;32223;53.654;10.014;2023-06-14T07:54:52;5.93;;;1.77;;
46507;SDS011;32223;53.654;10.014;2023-06-14T07:57:17;3.95;;;1.88;;
46507;SDS011;32223;53.654;10.014;2023-06-14T07:59:45;4.28;;;1.80;;
46507;SDS011;32223;53.654;10.014;2023-06-14T08:02:11;6.32;;;1.95;;
46507;SDS011;32223;53.654;10.014;2023-06-14T08:04:36;2.38;;;1.55;;
46507;SDS011;32223;53.654;10.014;2023-06-14T08:07:03;3.50;;;1.38;;
46507;SDS011;32223;53.654;10.014;2023-06-14T08:09:29;3.22;;;1.60;;
46507;SDS011;32223;53.654;10.014;2023-06-14T08:11:55;3.90;;;1.60;;
46507;SDS011;32223;53.654;10.014;2023-06-14T08:14:21;2.80;;;1.75;;
46507;SDS011;32223;53.654;10.014;2023-06-14T08:16:47;9.45;;;1.77;;
46507;SDS011;32223;53.654;10.014;2023-06-14T08:19:13;5.70;;;1.90;;
46507;SDS011;32223;53.654;10.014;2023-06-14T08:21:38;5.55;;;1.75;;
46507;SDS011;32223;53.654;10.014;2023-06-14T08:24:05;2.78;;;1.60;;
46507;SDS011;32223;53.654;10.014;2023-06-14T08:26:30;4.90;;;1.70;;
46507;SDS011;32223;53.654;10.014;2023-06-14T08:28:57;4.72;;;1.88;;
46507;SDS011;32223;53.654;10.014;2023-06-14T08:31:23;4.97;;;1.83;;
46507;SDS011;32223;53.654;10.014;2023-06-14T08:33:49;6.53;;;2.13;;
46507;SDS011;32223;53.654;10.014;2023-06-14T08:36:15;3.28;;;1.83;;
46507;SDS011;32223;53.654;10.014;2023-06-14T08:38:41;5.72;;;1.90;;
46507;SDS011;32223;53.654;10.014;2023-06-14T08:41:06;7.43;;;2.50;;
46507;SDS011;32223;53.654;10.014;2023-06-14T08:43:36;3.25;;;2.13;;
46507;SDS011;32223;53.654;10.014;2023-06-14T08:46:02;3.28;;;1.75;;
46507;SDS011;32223;53.654;10.014;2023-06-14T08:48:29;3.97;;;2.20;;
46507;SDS011;32223;53.654;10.014;2023-06-14T08:51:01;6.50;;;1.95;;
46507;SDS011;32223;53.654;10.014;2023-06-14T08:53:30;5.93;;;2.00;;
46507;SDS011;32223;53.654;10.014;2023-06-14T08:55:59;4.18;;;1.92;;
46507;SDS011;32223;53.654;10.014;2023-06-14T08:58:27;3.55;;;1.95;;
46507;SDS011;32223;53.654;10.014;2023-06-14T09:00:56;4.05;;;1.95;;
46507;SDS011;32223;53.654;10.014;2023-06-14T09:03:22;6.82;;;1.98;;
46507;SDS011;32223;53.654;10.014;2023-06-14T09:05:54;5.20;;;1.80;;
46507;SDS011;32223;53.654;10.014;2023-06-14T09:08:26;5.90;;;1.98;;
46507;SDS011;32223;53.654;10.014;2023-06-14T09:10:55;5.35;;;1.85;;
46507;SDS011;32223;53.654;10.014;2023-06-14T09:13:21;4.35;;;1.83;;
46507;SDS011;32223;53.654;10.014;2023-06-14T09:15:47;3.75;;;2.00;;
46507;SDS011;32223;53.654;10.014;2023-06-14T09:18:12;10.30;;;2.30;;
46507;SDS011;32223;53.654;10.014;2023-06-14T09:20:38;8.30;;;2.35;;
46507;SDS011;32223;53.654;10.014;2023-06-14T09:23:06;3.88;;;1.75;;
46507;SDS011;32223;53.654;10.014;2023-06-14T09:25:32;7.60;;;2.10;;
46507;SDS011;32223;53.654;10.014;2023-06-14T09:28:10;4.68;;;2.30;;
46507;SDS011;32223;53.654;10.014;2023-06-14T09:30:37;5.78;;;2.40;;
46507;SDS011;32223;53.654;10.014;2023-06-14T09:33:03;5.85;;;2.25;;
46507;SDS011;32223;53.654;10.014;2023-06-14T09:35:30;4.70;;;2.00;;
46507;SDS011;32223;53.654;10.014;2023-06-14T09:37:56;4.45;;;1.95;;
46507;SDS011;32223;53.654;10.014;2023-06-14T09:40:22;3.53;;;1.67;;
46507;SDS011;32223;53.654;10.014;2023-06-14T09:42:49;4.78;;;2.13;;
46507;SDS011;32223;53.654;10.014;2023-06-14T09:45:15;3.90;;;2.00;;
46507;SDS011;32223;53.654;10.014;2023-06-14T09:47:46;5.05;;;2.22;;
46507;SDS011;32223;53.654;10.014;2023-06-14T09:50:14;6.15;;;1.98;;
46507;SDS011;32223;53.654;10.014;2023-06-14T09:52:40;7.68;;;1.80;;
46507;SDS011;32223;53.654;10.014;2023-06-14T09:55:11;7.20;;;2.10;;
46507;SDS011;32223;53.654;10.014;2023-06-14T09:57:39;4.72;;;1.88;;
46507;SDS011;32223;53.654;10.014;2023-06-14T10:00:07;4.00;;;2.10;;
46507;SDS011;32223;53.654;10.014;2023-06-14T10:02:36;4.65;;;2.20;;
46507;SDS011;32223;53.654;10.014;2023-06-14T10:10:18;6.10;;;2.00;;
46507;SDS011;32223;53.654;10.014;2023-06-14T10:12:44;4.05;;;1.88;;
46507;SDS011;32223;53.654;10.014;2023-06-14T10:15:12;4.80;;;1.90;;
46507;SDS011;32223;53.654;10.014;2023-06-14T10:20:30;3.40;;;2.00;;
46507;SDS011;32223;53.654;10.014;2023-06-14T10:23:13;5.88;;;2.25;;
46507;SDS011;32223;53.654;10.014;2023-06-14T10:25:43;5.00;;;1.80;;
46507;SDS011;32223;53.654;10.014;2023-06-14T10:33:49;3.92;;;1.92;;
46507;SDS011;32223;53.654;10.014;2023-06-14T10:36:27;5.00;;;2.28;;
46507;SDS011;32223;53.654;10.014;2023-06-14T10:41:42;3.38;;;1.80;;
46507;SDS011;32223;53.654;10.014;2023-06-14T10:46:55;5.07;;;2.03;;
46507;SDS011;32223;53.654;10.014;2023-06-14T10:52:16;5.07;;;2.00;;
46507;SDS011;32223;53.654;10.014;2023-06-14T10:57:43;4.07;;;1.85;;
46507;SDS011;32223;53.654;10.014;2023-06-14T11:00:11;5.78;;;2.15;;
46507;SDS011;32223;53.654;10.014;2023-06-14T11:05:31;5.60;;;2.20;;
46507;SDS011;32223;53.654;10.014;2023-06-14T11:08:18;6.93;;;2.00;;
46507;SDS011;32223;53.654;10.014;2023-06-14T11:10:50;6.28;;;2.17;;
46507;SDS011;32223;53.654;10.014;2023-06-14T11:13:16;3.60;;;2.35;;
46507;SDS011;32223;53.654;10.014;2023-06-14T11:15:46;4.45;;;2.22;;
46507;SDS011;32223;53.654;10.014;2023-06-14T11:18:13;5.50;;;1.90;;
46507;SDS011;32223;53.654;10.014;2023-06-14T11:20:39;4.63;;;2.03;;
46507;SDS011;32223;53.654;10.014;2023-06-14T11:23:05;3.85;;;2.10;;
46507;SDS011;32223;53.654;10.014;2023-06-14T11:25:31;3.55;;;1.80;;
46507;SDS011;32223;53.654;10.014;2023-06-14T11:27:57;3.15;;;1.63;;
46507;SDS011;32223;53.654;10.014;2023-06-14T11:30:23;4.55;;;1.85;;
46507;SDS011;32223;53.654;10.014;2023-06-14T11:32:50;4.90;;;2.28;;
46507;SDS011;32223;53.654;10.014;2023-06-14T11:35:18;5.22;;;2.30;;
46507;SDS011;32223;53.654;10.014;2023-06-14T11:37:44;7.20;;;1.98;;
46507;SDS011;32223;53.654;10.014;2023-06-14T11:40:11;5.90;;;2.35;;
46507;SDS011;32223;53.654;10.014;2023-06-14T11:42:38;3.78;;;2.13;;
46507;SDS011;32223;53.654;10.014;2023-06-14T11:45:08;3.55;;;2.10;;
46507;SDS011;32223;53.654;10.014;2023-06-14T11:47:38;4.07;;;1.80;;
46507;SDS011;32223;53.654;10.014;2023-06-14T11:50:05;8.02;;;1.98;;
46507;SDS011;32223;53.654;10.014;2023-06-14T11:52:33;2.83;;;1.95;;
46507;SDS011;32223;53.654;10.014;2023-06-14T11:54:59;5.03;;;1.88;;
46507;SDS011;32223;53.654;10.014;2023-06-14T11:57:25;5.47;;;2.17;;
46507;SDS011;32223;53.654;10.014;2023-06-14T11:59:51;3.05;;;1.70;;
46507;SDS011;32223;53.654;10.014;2023-06-14T12:02:17;3.42;;;1.70;;
46507;SDS011;32223;53.654;10.014;2023-06-14T12:04:44;4.47;;;1.83;;
46507;SDS011;32223;53.654;10.014;2023-06-14T12:07:15;5.35;;;2.30;;
46507;SDS011;32223;53.654;10.014;2023-06-14T12:12:24;3.45;;;2.05;;
46507;SDS011;32223;53.654;10.014;2023-06-14T12:14:50;5.10;;;1.92;;
46507;SDS011;32223;53.654;10.014;2023-06-14T12:17:17;3.53;;;1.58;;
46507;SDS011;32223;53.654;10.014;2023-06-14T12:19:43;4.20;;;1.98;;
46507;SDS011;32223;53.654;10.014;2023-06-14T12:22:10;3.70;;;1.90;;
46507;SDS011;32223;53.654;10.014;2023-06-14T12:24:37;4.85;;;1.90;;
46507;SDS011;32223;53.654;10.014;2023-06-14T12:27:06;8.20;;;2.10;;
46507;SDS011;32223;53.654;10.014;2023-06-14T12:29:32;6.80;;;2.45;;
46507;SDS011;32223;53.654;10.014;2023-06-14T12:31:57;5.88;;;1.95;;
46507;SDS011;32223;53.654;10.014;2023-06-14T12:34:23;9.18;;;2.97;;
46507;SDS011;32223;53.654;10.014;2023-06-14T12:36:53;4.90;;;2.17;;
46507;SDS011;32223;53.654;10.014;2023-06-14T12:39:19;4.57;;;2.30;;
46507;SDS011;32223;53.654;10.014;2023-06-14T12:41:45;4.55;;;2.53;;
46507;SDS011;32223;53.654;10.014;2023-06-14T12:44:11;6.45;;;1.90;;
46507;SDS011;32223;53.654;10.014;2023-06-14T12:46:38;6.45;;;2.10;;
46507;SDS011;32223;53.654;10.014;2023-06-14T12:49:08;3.92;;;2.17;;
46507;SDS011;32223;53.654;10.014;2023-06-14T12:51:34;3.22;;;1.70;;
46507;SDS011;32223;53.654;10.014;2023-06-14T12:54:00;4.80;;;2.17;;
46507;SDS011;32223;53.654;10.014;2023-06-14T12:56:26;5.80;;;2.22;;
46507;SDS011;32223;53.654;10.014;2023-06-14T12:58:51;5.55;;;1.92;;
46507;SDS011;32223;53.654;10.014;2023-06-14T13:01:17;5.03;;;1.95;;
46507;SDS011;32223;53.654;10.014;2023-06-14T13:03:43;5.07;;;2.30;;
46507;SDS011;32223;53.654;10.014;2023-06-14T13:06:09;4.90;;;1.90;;
46507;SDS011;32223;53.654;10.014;2023-06-14T13:08:35;3.97;;;1.80;;
46507;SDS011;32223;53.654;10.014;2023-06-14T13:11:01;3.83;;;2.15;;
46507;SDS011;32223;53.654;10.014;2023-06-14T13:13:26;3.83;;;1.58;;
46507;SDS011;32223;53.654;10.014;2023-06-14T13:15:52;2.92;;;1.75;;
46507;SDS011;32223;53.654;10.014;2023-06-14T13:18:17;3.80;;;1.83;;
46507;SDS011;32223;53.654;10.014;2023-06-14T13:20:43;3.80;;;1.80;;
46507;SDS011;32223;53.654;10.014;2023-06-14T13:23:10;4.38;;;2.10;;
46507;SDS011;32223;53.654;10.014;2023-06-14T13:25:36;6.00;;;1.90;;
46507;SDS011;32223;53.654;10.014;2023-06-14T13:28:03;6.80;;;1.95;;
46507;SDS011;32223;53.654;10.014;2023-06-14T13:30:29;3.67;;;1.67;;
46507;SDS011;32223;53.654;10.014;2023-06-14T13:32:55;4.25;;;2.22;;
46507;SDS011;32223;53.654;10.014;2023-06-14T13:35:22;6.15;;;2.15;;
46507;SDS011;32223;53.654;10.014;2023-06-14T13:37:48;3.60;;;1.75;;
46507;SDS011;32223;53.654;10.014;2023-06-14T13:40:14;4.68;;;1.60;;
46507;SDS011;32223;53.654;10.014;2023-06-14T13:42:40;4.57;;;1.50;;
46507;SDS011;32223;53.654;10.014;2023-06-14T13:45:06;4.70;;;1.40;;
46507;SDS011;32223;53.654;10.014;2023-06-14T13:47:33;4.85;;;1.80;;
46507;SDS011;32223;53.654;10.014;2023-06-14T13:49:58;3.50;;;1.55;;
46507;SDS011;32223;53.654;10.014;2023-06-14T13:52:24;3.47;;;1.77;;
46507;SDS011;32223;53.654;10.014;2023-06-14T13:54:50;4.10;;;1.48;;
46507;SDS011;32223;53.654;10.014;2023-06-14T13:57:16;4.05;;;1.88;;
46507;SDS011;32223;53.654;10.014;2023-06-14T13:59:42;4.72;;;1.75;;
46507;SDS011;32223;53.654;10.014;2023-06-14T14:02:11;3.25;;;1.77;;
46507;SDS011;32223;53.654;10.014;2023-06-14T14:04:38;5.30;;;1.60;;
46507;SDS011;32223;53.654;10.014;2023-06-14T14:07:04;4.80;;;1.55;;
46507;SDS011;32223;53.654;10.014;2023-06-14T14:09:34;5.95;;;1.90;;
46507;SDS011;32223;53.654;10.014;2023-06-14T14:12:00;3.08;;;1.75;;
46507;SDS011;32223;53.654;10.014;2023-06-14T14:14:29;3.90;;;1.52;;
46507;SDS011;32223;53.654;10.014;2023-06-14T14:16:57;3.78;;;1.40;;
46507;SDS011;32223;53.654;10.014;2023-06-14T14:19:22;2.42;;;1.58;;
46507;SDS011;32223;53.654;10.014;2023-06-14T14:21:48;3.85;;;1.77;;
46507;SDS011;32223;53.654;10.014;2023-06-14T14:24:14;4.47;;;1.90;;
46507;SDS011;32223;53.654;10.014;2023-06-14T14:26:40;3.97;;;1.60;;
46507;SDS011;32223;53.654;10.014;2023-06-14T14:29:06;7.07;;;1.80;;
46507;SDS011;32223;53.654;10.014;2023-06-14T14:31:32;5.88;;;1.88;;
46507;SDS011;32223;53.654;10.014;2023-06-14T14:33:58;3.15;;;1.60;;
46507;SDS011;32223;53.654;10.014;2023-06-14T14:36:23;5.43;;;1.60;;
46507;SDS011;32223;53.654;10.014;2023-06-14T14:38:49;4.05;;;1.88;;
46507;SDS011;32223;53.654;10.014;2023-06-14T14:41:16;2.58;;;1.77;;
46507;SDS011;32223;53.654;10.014;2023-06-14T14:43:42;3.72;;;1.60;;
46507;SDS011;32223;53.654;10.014;2023-06-14T14:46:08;4.80;;;1.65;;
46507;SDS011;32223;53.654;10.014;2023-06-14T14:48:33;4.95;;;1.80;;
46507;SDS011;32223;53.654;10.014;2023-06-14T14:50:59;3.45;;;1.60;;
46507;SDS011;32223;53.654;10.014;2023-06-14T14:53:24;3.47;;;1.70;;
46507;SDS011;32223;53.654;10.014;2023-06-14T14:55:50;5.15;;;2.03;;
46507;SDS011;32223;53.654;10.014;2023-06-14T14:58:16;3.35;;;1.55;;
46507;SDS011;32223;53.654;10.014;2023-06-14T15:00:45;5.43;;;2.10;;
46507;SDS011;32223;53.654;10.014;2023-06-14T15:03:11;5.30;;;1.48;;
46507;SDS011;32223;53.654;10.014;2023-06-14T15:05:36;6.93;;;2.13;;
46507;SDS011;32223;53.654;10.014;2023-06-14T15:08:02;5.35;;;1.85;;
46507;SDS011;32223;53.654;10.014;2023-06-14T15:10:28;3.53;;;1.88;;